Flight Track Log - Related Links

Times and Time Zones

All times are in EDT time to prevent confusion due to time zone crossing. See the N381HC flight status page for this flight to view local times or setup timezone preferences in your user account.

Time Position Orientation Groundspeed Altitude Reporting Facility
EDT Latitude Longitude Course Direction KTS MPH feet Rate Location/Type
Tue 04:06:16 AM 39.4667 -119.7667 180° South 150 173 6,200  Level Northern Cal TRACON
Tue 04:07:16 AM 39.4167 -119.7667 180° South 168 193 8,100 1,905 Climbing Northern Cal TRACON
Tue 04:08:22 AM 39.4000 -119.7167 113° Southeast 177 204 10,200 1,914 Climbing Northern Cal TRACON
Tue 04:09:59 AM 39.4225 -119.6200 73° East 177 204 13,300 1,940 Climbing Salt Lake Center
Tue 04:10:35 AM 39.4308 -119.5831 74° East 177 204 14,500 1,875 Climbing Oakland Center
Tue 04:11:35 AM 39.4442 -119.5211 74° East 178 205 16,300 1,800 Climbing Oakland Center
Tue 04:12:35 AM 39.4567 -119.4619 75° East 172 198 18,100 1,700 Climbing Oakland Center
Tue 04:13:35 AM 39.4678 -119.4025 76° East 171 197 19,700 1,750 Climbing Oakland Center
Tue 04:14:35 AM 39.4806 -119.3456 74° East 165 190 21,600 1,587 Climbing Oakland Center
Tue 04:15:36 AM 39.4919 -119.2925 74° East 157 181 22,900 1,289 Climbing Oakland Center
Tue 04:16:36 AM 39.5028 -119.2381 76° East 155 178 24,200 1,050 Climbing Oakland Center
Tue 04:17:36 AM 39.5144 -119.1842 74° East 155 178 25,000 400 Climbing Oakland Center
Tue 04:18:36 AM 39.5294 -119.1147 74° East 202 232 25,000  Level Oakland Center
Tue 04:19:36 AM 39.5458 -119.0372 75° East 219 252 25,000  Level Oakland Center
Tue 04:20:36 AM 39.5628 -118.9575 75° East 226 260 25,000  Level Oakland Center
Tue 04:21:36 AM 39.5800 -118.8753 75° East 234 269 25,000  Level Oakland Center
Tue 04:22:37 AM 39.5972 -118.7922 75° East 236 272 25,000  Level Oakland Center
Tue 04:23:37 AM 39.6153 -118.7072 75° East 241 277 25,000  Level Oakland Center
Tue 04:24:37 AM 39.6322 -118.6231 75° East 240 276 25,000  Level Oakland Center
Tue 04:25:37 AM 39.6500 -118.5375 75° East 243 280 25,000  Level Oakland Center
Tue 04:26:37 AM 39.6667 -118.4531 76° East 242 278 25,000  Level Oakland Center
Tue 04:27:37 AM 39.6842 -118.3678 75° East 244 281 25,000  Level Oakland Center
Tue 04:28:37 AM 39.7011 -118.2844 75° East 240 276 25,000  Level Oakland Center
Tue 04:29:37 AM 39.7183 -118.1986 75° East 244 281 25,000  Level Oakland Center
Tue 04:30:37 AM 39.7356 -118.1131 75° East 244 281 25,000  Level Oakland Center
Tue 04:31:37 AM 39.7525 -118.0286 75° East 242 278 25,000  Level Oakland Center
Tue 04:32:38 AM 39.7694 -117.9431 76° East 243 280 25,000  Level Oakland Center
Tue 04:33:38 AM 39.7858 -117.8578 76° East 242 278 25,000  Level Oakland Center
Tue 04:34:38 AM 39.8028 -117.7731 75° East 241 277 25,000  Level Oakland Center
Tue 04:35:38 AM 39.8200 -117.6864 75° East 243 280 25,000  Level Oakland Center
Tue 04:36:38 AM 39.8364 -117.6025 76° East 244 281 25,000  Level Oakland Center
Tue 04:37:38 AM 39.8519 -117.5239 76° East 241 277 25,000  Level Oakland Center
Tue 04:38:38 AM 39.8681 -117.4425 76° East 241 277 25,000  Level Oakland Center
Tue 04:39:38 AM 39.8867 -117.3467 76° East 243 280 25,000  Level Oakland Center
Tue 04:40:04 AM 39.8917 -117.3189 77° East 244 281 25,000  Level Salt Lake Center
Tue 04:41:04 AM 39.9103 -117.2244 76° East 241 277 25,000  Level Salt Lake Center
Tue 04:42:04 AM 39.9253 -117.1433 76° East 241 277 25,000  Level Salt Lake Center
Tue 04:42:38 AM 39.9358 -117.0903 75° East 241 277 25,000  Level Oakland Center
Tue 04:43:39 AM 39.9517 -117.0092 76° East 241 277 25,000  Level Oakland Center
Tue 04:44:39 AM 39.9656 -116.9278 77° East 241 277 25,000  Level Oakland Center
Tue 04:45:39 AM 39.9811 -116.8469 76° East 241 277 25,000  Level Oakland Center
Tue 04:46:05 AM 39.9889 -116.8064 76° East 240 276 25,000  Level Salt Lake Center
Tue 04:47:05 AM 40.0042 -116.7267 76° East 239 275 25,000  Level Salt Lake Center
Tue 04:48:05 AM 40.0208 -116.6322 77° East 239 275 25,000  Level Salt Lake Center
Tue 04:48:39 AM 40.0289 -116.5925 75° East 239 275 25,000  Level Oakland Center
Tue 04:49:39 AM 40.0469 -116.5006 76° East 237 273 25,000  Level Oakland Center
Tue 04:50:39 AM 40.0603 -116.4194 78° East 237 273 25,000  Level Oakland Center
Tue 04:52:06 AM 40.0833 -116.2994 76° East 238 274 25,000  Level Salt Lake Center
Tue 04:53:06 AM 40.0978 -116.2192 77° East 238 274 25,000  Level Salt Lake Center
Tue 04:54:06 AM 40.1122 -116.1392 77° East 237 273 25,000  Level Salt Lake Center
Tue 04:55:06 AM 40.1292 -116.0436 77° East 240 276 25,000  Level Salt Lake Center
Tue 04:56:06 AM 40.1450 -115.9642 75° East 238 274 25,000  Level Salt Lake Center
Tue 04:57:07 AM 40.1592 -115.8833 77° East 238 274 25,000  Level Salt Lake Center
Tue 04:58:07 AM 40.1747 -115.8025 76° East 238 274 25,000  Level Salt Lake Center
Tue 04:59:07 AM 40.1903 -115.7100 78° East 235 270 25,000  Level Salt Lake Center
Tue 05:00:07 AM 40.2047 -115.6303 77° East 235 270 25,000  Level Salt Lake Center
Tue 05:01:07 AM 40.2192 -115.5494 77° East 237 273 25,000  Level Salt Lake Center
Tue 05:02:07 AM 40.2364 -115.4556 76° East 237 273 25,000  Level Salt Lake Center
Tue 05:03:07 AM 40.2492 -115.3775 78° East 232 267 25,000  Level Salt Lake Center
Tue 05:04:07 AM 40.2622 -115.3017 77° East 226 260 25,000  Level Salt Lake Center
Tue 05:05:07 AM 40.2753 -115.2275 77° East 221 254 25,000  Level Salt Lake Center
Tue 05:06:08 AM 40.2911 -115.1375 77° East 225 259 25,000  Level Salt Lake Center
Tue 05:07:08 AM 40.3039 -115.0608 78° East 225 259 25,000  Level Salt Lake Center
Tue 05:08:08 AM 40.3178 -114.9844 77° East 225 259 25,000  Level Salt Lake Center
Tue 05:09:08 AM 40.3306 -114.9069 78° East 226 260 25,000  Level Salt Lake Center
Tue 05:10:08 AM 40.3458 -114.8167 77° East 227 261 25,000  Level Salt Lake Center
Tue 05:11:08 AM 40.3603 -114.7372 77° East 232 267 25,000  Level Salt Lake Center
Tue 05:12:08 AM 40.3747 -114.6542 77° East 234 269 25,000  Level Salt Lake Center
Tue 05:13:08 AM 40.3886 -114.5714 78° East 234 269 25,000  Level Salt Lake Center
Tue 05:14:08 AM 40.4025 -114.4889 78° East 232 267 25,000  Level Salt Lake Center
Tue 05:15:08 AM 40.4156 -114.4058 78° East 233 268 25,000  Level Salt Lake Center
Tue 05:16:08 AM 40.4300 -114.3231 77° East 233 268 25,000  Level Salt Lake Center
Tue 05:17:09 AM 40.4433 -114.2408 78° East 232 267 25,000  Level Salt Lake Center
Tue 05:18:09 AM 40.4569 -114.1586 78° East 231 266 25,000  Level Salt Lake Center
Tue 05:19:09 AM 40.4708 -114.0764 77° East 231 266 25,000  Level Salt Lake Center
Tue 05:20:09 AM 40.4828 -113.9908 80° East 237 273 25,000  Level Salt Lake Center
Tue 05:21:09 AM 40.4975 -113.9058 77° East 239 275 25,000 -350 Level Salt Lake Center
Tue 05:22:09 AM 40.5125 -113.8194 77° East 242 278 24,300 -800 Descending Salt Lake Center
Tue 05:23:09 AM 40.5281 -113.7233 78° East 263 303 23,400 -900 Descending Salt Lake Center
Tue 05:24:09 AM 40.5431 -113.6256 79° East 272 313 22,500 -900 Descending Salt Lake Center
Tue 05:25:09 AM 40.5586 -113.5275 78° East 275 316 21,600 -900 Descending Salt Lake Center
Tue 05:26:09 AM 40.5733 -113.4292 79° East 275 316 20,700 -900 Descending Salt Lake Center
Tue 05:27:09 AM 40.5886 -113.3314 78° East 274 315 19,800 -900 Descending Salt Lake Center
Tue 05:28:09 AM 40.6025 -113.2331 79° East 274 315 18,900 -893 Descending Salt Lake Center
Tue 05:29:10 AM 40.6169 -113.1350 79° East 273 314 18,000 -953 Descending Salt Lake Center
Tue 05:29:56 AM 40.6347 -113.0564 73° East 275 316 17,200 -903 Descending Salt Lake Center
Tue 05:31:03 AM 40.6497 -112.9528 79° East 273 314 16,300 -898 Descending Salt Lake Center
Tue 05:32:03 AM 40.6664 -112.8486 78° East 271 312 15,300 -942 Descending Salt Lake Center
Tue 05:33:04 AM 40.6797 -112.7483 80° East 275 316 14,400 -885 Descending Salt Lake Center
Tue 05:34:05 AM 40.6950 -112.6475 79° East 281 323 13,500 -893 Descending Salt Lake Center
Tue 05:35:05 AM 40.7081 -112.5472 80° East 279 321 12,600 -893 Descending Salt Lake Center
Tue 05:36:06 AM 40.7236 -112.4489 78° East 276 318 11,700 -992 Descending Salt Lake Center
Tue 05:37:06 AM 40.7414 -112.3522 76° East 274 315 10,600 -1,091 Descending Salt Lake Center
Tue 05:38:07 AM 40.7589 -112.2531 77° East 275 316 9,500 -1,131 Descending Salt Lake Center
Tue 05:39:08 AM 40.7847 -112.1539 71° East 274 315 8,300 -1,140 Descending Salt Lake Center
Tue 05:40:08 AM 40.8161 -112.0611 66° East 273 314 7,200 -1,190 Descending Salt Lake Center
Tue 05:41:09 AM 40.8425 -111.9869 65° Northeast 201 231 5,900 -1,140 Descending Salt Lake Center
Tue 05:42:09 AM 40.8142 -111.9625 147° Southeast 129 148 4,900 -836 Descending Salt Lake Center
Tue 05:43:11 AM 40.7833 -111.9625 180° South 120 138 4,200 -677 Descending Salt Lake Center

Login

Don't have an account? Register now (free) for customized features, flight alerts, and more!